Date,TemperatureHighF,TemperatureAvgF,TemperatureLowF,DewpointHighF,DewpointAvgF,DewpointLowF,HumidityHigh,HumidityAvg,HumidityLow,PressureMaxIn,PressureMinIn,WindSpeedMaxMPH,WindSpeedAvgMPH,GustSpeedMaxMPH,PrecipitationSumIn
2013-10-1,72.9,59.8,48.2,59.4,52.2,43.3,89,77,59,30.01,29.89,5,0,5,0.00
2013-10-2,75.6,63.3,53.4,62.2,56.1,48.1,91,78,63,30.01,29.89,8,0,8,0.00
2013-10-3,73.4,61.6,50.4,58.0,52.9,45.4,91,74,52,30.12,30.01,7,0,7,0.00
2013-10-4,74.5,63.6,55.6,62.5,57.5,51.5,91,81,66,30.09,29.98,8,0,8,0.00
2013-10-5,72.3,63.8,60.3,60.9,57.9,55.2,93,82,65,30.12,30.03,7,0,7,0.00
2013-10-6,62.8,61.3,60.4,62.4,60.6,57.2,100,97,88,30.18,30.09,12,0,12,0.59
2013-10-7,74.1,67.0,59.0,71.1,65.0,58.2,100,94,75,30.09,29.86,12,1,12,0.16
2013-10-8,65.8,56.4,50.2,58.0,47.8,40.5,97,74,56,30.36,29.95,9,0,9,0.00
2013-10-9,63.7,54.3,45.9,49.0,43.1,37.9,79,66,58,30.45,30.33,11,0,11,0.00
2013-10-10,62.4,55.4,49.1,51.8,47.3,42.2,79,74,67,30.33,30.12,8,1,8,0.00
2013-10-11,69.1,61.4,54.7,56.6,52.0,44.2,87,72,62,30.12,30.06,11,1,11,0.00
2013-10-12,72.9,60.3,52.2,56.6,48.1,41.9,75,64,57,30.36,30.12,12,2,12,0.00
2013-10-13,62.1,54.0,48.2,49.3,46.2,44.2,88,75,63,30.42,30.33,12,0,12,0.00
2013-10-14,63.0,50.8,41.7,49.1,43.8,38.4,92,78,59,30.42,30.27,10,0,10,0.00
2013-10-15,71.8,53.8,43.5,54.8,45.1,40.5,90,74,54,30.27,30.15,9,0,9,0.00
2013-10-16,69.4,58.4,50.0,55.2,49.5,43.7,87,73,60,30.15,29.95,9,0,9,0.00
2013-10-17,69.4,62.2,57.4,60.8,57.0,52.7,96,84,67,29.95,29.74,8,0,8,0.00
2013-10-18,70.5,59.4,47.1,63.1,51.1,39.9,100,76,56,29.98,29.68,12,0,12,0.00
2013-10-19,64.0,52.6,40.3,51.5,44.0,35.9,86,73,58,30.01,29.77,8,0,8,0.00
2013-10-20,57.7,49.9,41.2,54.7,43.1,34.3,90,78,60,30.06,29.74,6,0,6,0.00
2013-10-21,67.3,49.5,36.7,48.9,39.6,32.4,85,70,50,30.15,30.01,15,0,15,0.00
2013-10-22,70.9,55.2,46.6,55.0,46.5,38.0,93,74,57,30.01,29.74,15,1,15,0.00
2013-10-23,49.8,44.4,36.0,38.5,35.3,31.4,85,71,60,29.83,29.62,8,0,8,0.00
2013-10-24,58.1,42.7,33.1,40.3,32.3,27.9,88,68,52,29.98,29.74,12,0,17,0.00
2013-10-25,52.3,40.6,31.3,36.0,29.6,24.6,79,65,53,30.21,29.95,11,0,11,0.00
2013-10-26,59.7,43.0,29.5,41.8,32.3,24.8,83,67,52,30.21,29.92,19,2,19,0.00
2013-10-27,62.8,47.9,35.8,44.4,35.1,27.2,75,61,51,30.09,29.86,12,1,12,0.00
2013-10-28,63.3,44.7,30.0,45.9,33.3,25.6,86,66,52,30.33,30.09,11,0,12,0.00
2013-10-29,53.1,42.5,34.9,36.4,30.1,26.7,77,62,53,30.45,30.33,6,0,7,0.00
2013-10-30,58.8,46.4,35.2,45.4,37.6,28.1,90,72,60,30.36,30.21,12,0,12,0.00
2013-10-31,63.7,52.9,40.3,60.9,49.6,37.1,99,89,73,30.24,29.83,12,0,12,0.04